sensor_id;sensor_type;location;lat;lon;timestamp;pressure;altitude;pressure_sealevel;temperature;humidity
22649;BME280;11491;41.942;24.220;2023-04-09T00:00:41;90034.06;;;2.80;86.38
22649;BME280;11491;41.942;24.220;2023-04-09T00:03:08;90029.28;;;2.83;86.29
22649;BME280;11491;41.942;24.220;2023-04-09T00:05:38;90039.09;;;2.96;85.33
22649;BME280;11491;41.942;24.220;2023-04-09T00:08:06;90035.94;;;2.94;85.06
22649;BME280;11491;41.942;24.220;2023-04-09T00:10:33;90037.50;;;2.95;85.05
22649;BME280;11491;41.942;24.220;2023-04-09T00:13:00;90034.66;;;2.77;85.35
22649;BME280;11491;41.942;24.220;2023-04-09T00:15:27;90034.16;;;2.75;85.68
22649;BME280;11491;41.942;24.220;2023-04-09T00:17:53;90036.16;;;2.84;85.26
22649;BME280;11491;41.942;24.220;2023-04-09T00:20:21;90029.69;;;2.76;85.54
22649;BME280;11491;41.942;24.220;2023-04-09T00:22:47;90033.59;;;2.78;85.69
22649;BME280;11491;41.942;24.220;2023-04-09T00:25:17;90023.81;;;2.65;86.24
22649;BME280;11491;41.942;24.220;2023-04-09T00:27:44;90030.97;;;2.78;86.18
22649;BME280;11491;41.942;24.220;2023-04-09T00:30:11;90030.66;;;2.80;85.04
22649;BME280;11491;41.942;24.220;2023-04-09T00:32:38;90025.19;;;2.76;85.50
22649;BME280;11491;41.942;24.220;2023-04-09T00:35:05;90034.94;;;2.62;85.52
22649;BME280;11491;41.942;24.220;2023-04-09T00:37:32;90039.00;;;2.41;86.59
22649;BME280;11491;41.942;24.220;2023-04-09T00:39:59;90036.81;;;2.15;88.11
22649;BME280;11491;41.942;24.220;2023-04-09T00:42:30;90021.16;;;2.05;88.63
22649;BME280;11491;41.942;24.220;2023-04-09T00:44:57;90028.81;;;2.20;89.02
22649;BME280;11491;41.942;24.220;2023-04-09T00:47:24;90025.41;;;2.33;88.80
22649;BME280;11491;41.942;24.220;2023-04-09T00:49:51;90034.16;;;2.48;87.57
22649;BME280;11491;41.942;24.220;2023-04-09T00:52:18;90032.59;;;2.47;87.12
22649;BME280;11491;41.942;24.220;2023-04-09T00:54:45;90028.38;;;2.46;87.18
22649;BME280;11491;41.942;24.220;2023-04-09T00:57:13;90018.31;;;2.48;86.77
22649;BME280;11491;41.942;24.220;2023-04-09T00:59:41;90019.97;;;2.57;86.28
22649;BME280;11491;41.942;24.220;2023-04-09T01:02:09;90026.25;;;2.62;85.60
22649;BME280;11491;41.942;24.220;2023-04-09T01:04:36;90029.84;;;2.52;85.51
22649;BME280;11491;41.942;24.220;2023-04-09T01:07:09;90028.47;;;2.41;86.28
22649;BME280;11491;41.942;24.220;2023-04-09T01:09:41;90013.81;;;2.34;86.05
22649;BME280;11491;41.942;24.220;2023-04-09T01:12:13;90032.59;;;2.47;86.27
22649;BME280;11491;41.942;24.220;2023-04-09T01:14:51;90004.53;;;2.37;86.18
22649;BME280;11491;41.942;24.220;2023-04-09T01:17:23;90026.81;;;2.45;85.80
22649;BME280;11491;41.942;24.220;2023-04-09T01:19:58;90016.94;;;2.50;84.77
22649;BME280;11491;41.942;24.220;2023-04-09T01:22:41;90009.97;;;2.41;85.45
22649;BME280;11491;41.942;24.220;2023-04-09T01:25:21;90014.56;;;2.35;85.57
22649;BME280;11491;41.942;24.220;2023-04-09T01:28:08;90017.50;;;2.33;85.25
22649;BME280;11491;41.942;24.220;2023-04-09T01:30:37;90031.19;;;2.35;85.55
22649;BME280;11491;41.942;24.220;2023-04-09T01:33:05;90037.13;;;2.27;85.97
22649;BME280;11491;41.942;24.220;2023-04-09T01:35:32;90041.56;;;2.32;85.70
22649;BME280;11491;41.942;24.220;2023-04-09T01:37:59;90043.31;;;2.36;85.54
22649;BME280;11491;41.942;24.220;2023-04-09T01:40:26;90033.09;;;2.16;85.81
22649;BME280;11491;41.942;24.220;2023-04-09T01:42:54;90038.59;;;2.20;85.81
22649;BME280;11491;41.942;24.220;2023-04-09T01:45:24;90029.81;;;2.24;85.85
22649;BME280;11491;41.942;24.220;2023-04-09T01:47:51;90038.22;;;2.26;85.32
22649;BME280;11491;41.942;24.220;2023-04-09T01:50:20;90034.84;;;2.07;85.86
22649;BME280;11491;41.942;24.220;2023-04-09T01:52:47;90041.09;;;2.11;86.18
22649;BME280;11491;41.942;24.220;2023-04-09T01:55:14;90043.63;;;2.02;85.75
22649;BME280;11491;41.942;24.220;2023-04-09T01:57:41;90042.59;;;2.17;84.92
22649;BME280;11491;41.942;24.220;2023-04-09T02:00:09;90027.34;;;2.14;84.35
22649;BME280;11491;41.942;24.220;2023-04-09T02:02:43;90029.41;;;2.17;84.47
22649;BME280;11491;41.942;24.220;2023-04-09T02:05:14;90037.97;;;2.09;85.21
22649;BME280;11491;41.942;24.220;2023-04-09T02:07:46;90031.28;;;1.98;85.65
22649;BME280;11491;41.942;24.220;2023-04-09T02:10:15;90036.41;;;2.08;84.90
22649;BME280;11491;41.942;24.220;2023-04-09T02:12:47;90036.91;;;2.10;85.14
22649;BME280;11491;41.942;24.220;2023-04-09T02:15:14;90027.00;;;2.02;84.75
22649;BME280;11491;41.942;24.220;2023-04-09T02:17:43;90026.78;;;1.98;84.91
22649;BME280;11491;41.942;24.220;2023-04-09T02:20:11;90034.44;;;2.00;85.57
22649;BME280;11491;41.942;24.220;2023-04-09T02:22:43;90035.78;;;1.97;85.45
22649;BME280;11491;41.942;24.220;2023-04-09T02:25:09;90037.00;;;1.86;85.73
22649;BME280;11491;41.942;24.220;2023-04-09T02:27:36;90036.88;;;1.77;86.17
22649;BME280;11491;41.942;24.220;2023-04-09T02:30:04;90041.16;;;1.73;86.11
22649;BME280;11491;41.942;24.220;2023-04-09T02:32:30;90034.31;;;1.72;86.31
22649;BME280;11491;41.942;24.220;2023-04-09T02:34:59;90028.78;;;1.55;86.85
22649;BME280;11491;41.942;24.220;2023-04-09T02:37:25;90031.25;;;1.46;87.34
22649;BME280;11491;41.942;24.220;2023-04-09T02:39:52;90032.03;;;1.46;88.10
22649;BME280;11491;41.942;24.220;2023-04-09T02:42:19;90033.03;;;1.50;88.04
22649;BME280;11491;41.942;24.220;2023-04-09T02:44:46;90043.81;;;1.54;88.18
22649;BME280;11491;41.942;24.220;2023-04-09T02:47:12;90044.84;;;1.34;88.26
22649;BME280;11491;41.942;24.220;2023-04-09T02:49:39;90046.00;;;1.28;88.42
22649;BME280;11491;41.942;24.220;2023-04-09T02:52:08;90044.13;;;1.10;89.44
22649;BME280;11491;41.942;24.220;2023-04-09T02:54:35;90049.13;;;1.30;89.54
22649;BME280;11491;41.942;24.220;2023-04-09T02:57:02;90037.69;;;1.40;89.31
22649;BME280;11491;41.942;24.220;2023-04-09T02:59:28;90039.66;;;1.48;89.42
22649;BME280;11491;41.942;24.220;2023-04-09T03:01:57;90038.16;;;1.61;89.10
22649;BME280;11491;41.942;24.220;2023-04-09T03:04:24;90036.75;;;1.49;88.85
22649;BME280;11491;41.942;24.220;2023-04-09T03:06:50;90034.06;;;1.55;88.76
22649;BME280;11491;41.942;24.220;2023-04-09T03:09:18;90041.44;;;1.53;88.78
22649;BME280;11491;41.942;24.220;2023-04-09T03:11:45;90039.31;;;1.55;88.13
22649;BME280;11491;41.942;24.220;2023-04-09T03:14:12;90048.00;;;1.74;87.92
22649;BME280;11491;41.942;24.220;2023-04-09T03:16:39;90045.41;;;1.69;87.77
22649;BME280;11491;41.942;24.220;2023-04-09T03:19:05;90041.56;;;1.80;87.28
22649;BME280;11491;41.942;24.220;2023-04-09T03:21:32;90050.19;;;1.86;86.71
22649;BME280;11491;41.942;24.220;2023-04-09T03:23:59;90046.66;;;1.77;86.92
22649;BME280;11491;41.942;24.220;2023-04-09T03:26:27;90047.44;;;1.77;87.32
22649;BME280;11491;41.942;24.220;2023-04-09T03:29:00;90059.38;;;1.88;86.89
22649;BME280;11491;41.942;24.220;2023-04-09T03:31:27;90043.94;;;1.82;86.18
22649;BME280;11491;41.942;24.220;2023-04-09T03:33:53;90046.44;;;1.73;86.79
22649;BME280;11491;41.942;24.220;2023-04-09T03:36:20;90050.56;;;1.79;87.46
22649;BME280;11491;41.942;24.220;2023-04-09T03:38:47;90054.25;;;1.78;86.73
22649;BME280;11491;41.942;24.220;2023-04-09T03:41:14;90050.56;;;1.79;86.27
22649;BME280;11491;41.942;24.220;2023-04-09T03:43:42;90049.38;;;1.71;86.62
22649;BME280;11491;41.942;24.220;2023-04-09T03:46:12;90053.06;;;1.70;87.21
22649;BME280;11491;41.942;24.220;2023-04-09T03:48:39;90059.53;;;1.78;87.03
22649;BME280;11491;41.942;24.220;2023-04-09T03:51:06;90058.91;;;1.86;87.06
22649;BME280;11491;41.942;24.220;2023-04-09T03:53:36;90059.03;;;1.95;86.48
22649;BME280;11491;41.942;24.220;2023-04-09T03:56:03;90061.00;;;2.03;85.38
22649;BME280;11491;41.942;24.220;2023-04-09T03:58:30;90049.88;;;1.55;86.61
22649;BME280;11491;41.942;24.220;2023-04-09T04:00:58;90016.09;;;1.19;87.99
22649;BME280;11491;41.942;24.220;2023-04-09T04:03:25;90046.50;;;1.49;88.22
22649;BME280;11491;41.942;24.220;2023-04-09T04:05:52;90063.25;;;1.39;88.58
22649;BME280;11491;41.942;24.220;2023-04-09T04:08:18;90064.72;;;1.26;89.33
22649;BME280;11491;41.942;24.220;2023-04-09T04:10:45;90071.25;;;1.10;90.40
22649;BME280;11491;41.942;24.220;2023-04-09T04:13:12;90076.66;;;1.19;90.76
22649;BME280;11491;41.942;24.220;2023-04-09T04:15:39;90069.44;;;1.29;91.10
22649;BME280;11491;41.942;24.220;2023-04-09T04:18:08;90068.53;;;1.39;91.58
22649;BME280;11491;41.942;24.220;2023-04-09T04:20:35;90065.69;;;1.55;91.33
22649;BME280;11491;41.942;24.220;2023-04-09T04:23:02;90059.84;;;1.58;91.33
22649;BME280;11491;41.942;24.220;2023-04-09T04:25:29;90054.47;;;1.63;90.87
22649;BME280;11491;41.942;24.220;2023-04-09T04:27:56;90069.50;;;1.81;90.83
22649;BME280;11491;41.942;24.220;2023-04-09T04:30:23;90066.38;;;1.79;90.65
22649;BME280;11491;41.942;24.220;2023-04-09T04:32:49;90077.97;;;1.97;90.51
22649;BME280;11491;41.942;24.220;2023-04-09T04:35:18;90069.47;;;2.19;88.83
22649;BME280;11491;41.942;24.220;2023-04-09T04:37:49;90059.78;;;1.96;88.07
22649;BME280;11491;41.942;24.220;2023-04-09T04:40:16;90065.75;;;2.20;88.28
22649;BME280;11491;41.942;24.220;2023-04-09T04:42:43;90072.34;;;2.36;87.72
22649;BME280;11491;41.942;24.220;2023-04-09T04:45:10;90054.56;;;2.42;87.44
22649;BME280;11491;41.942;24.220;2023-04-09T04:47:36;90060.53;;;2.48;87.72
22649;BME280;11491;41.942;24.220;2023-04-09T04:50:05;90068.38;;;2.53;88.15
22649;BME280;11491;41.942;24.220;2023-04-09T04:52:33;90057.63;;;2.63;87.73
22649;BME280;11491;41.942;24.220;2023-04-09T04:55:00;90062.34;;;2.66;87.63
22649;BME280;11491;41.942;24.220;2023-04-09T04:57:26;90058.03;;;2.70;86.79
22649;BME280;11491;41.942;24.220;2023-04-09T04:59:53;90058.44;;;2.77;86.71
22649;BME280;11491;41.942;24.220;2023-04-09T05:02:20;90064.78;;;2.90;85.99
22649;BME280;11491;41.942;24.220;2023-04-09T05:04:46;90060.56;;;2.75;84.92
22649;BME280;11491;41.942;24.220;2023-04-09T05:07:13;90067.22;;;2.59;85.92
22649;BME280;11491;41.942;24.220;2023-04-09T05:09:41;90067.97;;;2.46;86.72
22649;BME280;11491;41.942;24.220;2023-04-09T05:12:08;90068.59;;;2.56;86.77
22649;BME280;11491;41.942;24.220;2023-04-09T05:14:35;90063.59;;;2.55;86.97
22649;BME280;11491;41.942;24.220;2023-04-09T05:17:02;90069.00;;;2.77;87.51
22649;BME280;11491;41.942;24.220;2023-04-09T05:19:29;90068.41;;;2.80;86.69
22649;BME280;11491;41.942;24.220;2023-04-09T05:21:55;90068.22;;;2.77;86.23
22649;BME280;11491;41.942;24.220;2023-04-09T05:24:22;90069.31;;;2.76;86.41
22649;BME280;11491;41.942;24.220;2023-04-09T05:26:50;90061.94;;;2.59;87.72
22649;BME280;11491;41.942;24.220;2023-04-09T05:29:17;90068.03;;;2.73;87.74
22649;BME280;11491;41.942;24.220;2023-04-09T05:31:44;90057.09;;;2.94;87.38
22649;BME280;11491;41.942;24.220;2023-04-09T05:34:10;90055.31;;;3.03;86.60
22649;BME280;11491;41.942;24.220;2023-04-09T05:36:37;90057.06;;;3.08;87.03
22649;BME280;11491;41.942;24.220;2023-04-09T05:39:04;90048.16;;;3.17;87.08
22649;BME280;11491;41.942;24.220;2023-04-09T05:41:30;90049.81;;;3.41;86.27
22649;BME280;11491;41.942;24.220;2023-04-09T05:43:59;90055.56;;;3.57;86.40
22649;BME280;11491;41.942;24.220;2023-04-09T05:46:26;90058.19;;;3.71;86.80
22649;BME280;11491;41.942;24.220;2023-04-09T05:48:53;90060.38;;;3.91;86.03
22649;BME280;11491;41.942;24.220;2023-04-09T05:51:19;90058.25;;;4.02;85.33
22649;BME280;11491;41.942;24.220;2023-04-09T05:53:46;90056.53;;;4.20;83.48
22649;BME280;11491;41.942;24.220;2023-04-09T05:56:13;90058.34;;;4.33;82.11
22649;BME280;11491;41.942;24.220;2023-04-09T05:58:41;90062.19;;;4.27;82.78
22649;BME280;11491;41.942;24.220;2023-04-09T06:01:09;90058.97;;;4.30;83.16
22649;BME280;11491;41.942;24.220;2023-04-09T06:03:36;90064.00;;;4.40;82.99
22649;BME280;11491;41.942;24.220;2023-04-09T06:06:03;90060.47;;;4.45;83.06
22649;BME280;11491;41.942;24.220;2023-04-09T06:08:30;90070.34;;;4.62;82.61
22649;BME280;11491;41.942;24.220;2023-04-09T06:10:57;90072.28;;;4.70;82.15
22649;BME280;11491;41.942;24.220;2023-04-09T06:13:24;90075.75;;;4.79;81.45
22649;BME280;11491;41.942;24.220;2023-04-09T06:15:51;90079.22;;;4.88;80.82
22649;BME280;11491;41.942;24.220;2023-04-09T06:18:19;90078.34;;;5.02;81.46
22649;BME280;11491;41.942;24.220;2023-04-09T06:20:46;90070.16;;;5.12;80.95
22649;BME280;11491;41.942;24.220;2023-04-09T06:23:13;90074.69;;;5.20;81.11
22649;BME280;11491;41.942;24.220;2023-04-09T06:25:40;90063.94;;;5.25;81.65
22649;BME280;11491;41.942;24.220;2023-04-09T06:28:06;90070.41;;;5.42;82.66
22649;BME280;11491;41.942;24.220;2023-04-09T06:30:33;90067.88;;;5.36;84.70
22649;BME280;11491;41.942;24.220;2023-04-09T06:33:01;90059.13;;;5.27;86.07
22649;BME280;11491;41.942;24.220;2023-04-09T06:35:31;90071.63;;;5.35;87.66
22649;BME280;11491;41.942;24.220;2023-04-09T06:37:58;90072.59;;;5.39;88.25
22649;BME280;11491;41.942;24.220;2023-04-09T06:40:25;90074.75;;;5.37;88.03
22649;BME280;11491;41.942;24.220;2023-04-09T06:42:51;90075.09;;;5.45;88.20
22649;BME280;11491;41.942;24.220;2023-04-09T06:45:18;90065.88;;;5.42;88.16
22649;BME280;11491;41.942;24.220;2023-04-09T06:47:45;90078.38;;;5.50;88.31
22649;BME280;11491;41.942;24.220;2023-04-09T06:50:12;90044.03;;;5.45;87.96
22649;BME280;11491;41.942;24.220;2023-04-09T06:52:40;90077.97;;;5.74;87.48
22649;BME280;11491;41.942;24.220;2023-04-09T06:55:07;90070.78;;;5.83;87.39
22649;BME280;11491;41.942;24.220;2023-04-09T06:57:35;90077.06;;;5.88;86.67
22649;BME280;11491;41.942;24.220;2023-04-09T07:00:03;90062.06;;;5.92;86.37
22649;BME280;11491;41.942;24.220;2023-04-09T07:02:30;90066.09;;;5.80;86.40
22649;BME280;11491;41.942;24.220;2023-04-09T07:04:57;90064.06;;;5.86;88.09
22649;BME280;11491;41.942;24.220;2023-04-09T07:07:23;90063.03;;;5.96;87.41
22649;BME280;11491;41.942;24.220;2023-04-09T07:09:52;90073.06;;;6.16;87.12
22649;BME280;11491;41.942;24.220;2023-04-09T07:12:25;90066.16;;;6.33;85.82
22649;BME280;11491;41.942;24.220;2023-04-09T07:14:52;90074.59;;;6.52;85.42
22649;BME280;11491;41.942;24.220;2023-04-09T07:17:19;90066.78;;;6.47;85.10
22649;BME280;11491;41.942;24.220;2023-04-09T07:19:45;90075.53;;;6.56;84.35
22649;BME280;11491;41.942;24.220;2023-04-09T07:22:12;90080.22;;;6.59;85.43
22649;BME280;11491;41.942;24.220;2023-04-09T07:24:39;90078.94;;;6.65;84.65
22649;BME280;11491;41.942;24.220;2023-04-09T07:27:07;90073.63;;;6.65;84.39
22649;BME280;11491;41.942;24.220;2023-04-09T07:29:34;90081.22;;;6.93;84.54
22649;BME280;11491;41.942;24.220;2023-04-09T07:32:00;90083.06;;;7.19;82.64
22649;BME280;11491;41.942;24.220;2023-04-09T07:34:28;90079.06;;;7.42;81.43
22649;BME280;11491;41.942;24.220;2023-04-09T07:36:54;90079.53;;;7.44;82.73
22649;BME280;11491;41.942;24.220;2023-04-09T07:39:21;90076.13;;;7.65;83.29
22649;BME280;11491;41.942;24.220;2023-04-09T07:41:48;90078.13;;;7.76;82.81
22649;BME280;11491;41.942;24.220;2023-04-09T07:44:16;90076.31;;;7.89;82.25
22649;BME280;11491;41.942;24.220;2023-04-09T07:46:43;90072.31;;;8.04;82.59
22649;BME280;11491;41.942;24.220;2023-04-09T07:49:09;90045.69;;;8.25;81.43
22649;BME280;11491;41.942;24.220;2023-04-09T07:51:36;90076.72;;;8.84;80.86
22649;BME280;11491;41.942;24.220;2023-04-09T07:54:03;90078.94;;;9.15;79.62
22649;BME280;11491;41.942;24.220;2023-04-09T07:56:30;90065.94;;;9.26;75.50
22649;BME280;11491;41.942;24.220;2023-04-09T07:58:56;90081.31;;;9.54;77.16
22649;BME280;11491;41.942;24.220;2023-04-09T08:01:25;90072.47;;;9.86;74.22
22649;BME280;11491;41.942;24.220;2023-04-09T08:03:51;90069.00;;;9.98;71.61
22649;BME280;11491;41.942;24.220;2023-04-09T08:06:18;90070.41;;;10.20;73.26
22649;BME280;11491;41.942;24.220;2023-04-09T08:08:45;90072.09;;;10.25;69.39
22649;BME280;11491;41.942;24.220;2023-04-09T08:11:12;90077.00;;;10.10;69.07
22649;BME280;11491;41.942;24.220;2023-04-09T08:13:38;90068.78;;;9.79;70.03
22649;BME280;11491;41.942;24.220;2023-04-09T08:16:05;90057.22;;;9.62;68.90
22649;BME280;11491;41.942;24.220;2023-04-09T08:18:33;90066.97;;;9.34;70.73
22649;BME280;11491;41.942;24.220;2023-04-09T08:21:03;90058.75;;;9.39;70.60
22649;BME280;11491;41.942;24.220;2023-04-09T08:23:30;90064.97;;;9.31;70.34
22649;BME280;11491;41.942;24.220;2023-04-09T08:25:57;90031.16;;;9.10;70.35
22649;BME280;11491;41.942;24.220;2023-04-09T08:28:23;90069.06;;;8.82;70.55
22649;BME280;11491;41.942;24.220;2023-04-09T08:30:50;90062.72;;;8.75;72.67
22649;BME280;11491;41.942;24.220;2023-04-09T08:33:17;90064.66;;;8.66;73.97
22649;BME280;11491;41.942;24.220;2023-04-09T08:35:45;90065.00;;;8.64;74.48
22649;BME280;11491;41.942;24.220;2023-04-09T08:38:11;90062.22;;;8.60;75.14
22649;BME280;11491;41.942;24.220;2023-04-09T08:40:39;90055.31;;;8.38;75.32
22649;BME280;11491;41.942;24.220;2023-04-09T08:43:07;90059.09;;;8.37;76.41
22649;BME280;11491;41.942;24.220;2023-04-09T08:45:33;90065.97;;;8.38;76.48
22649;BME280;11491;41.942;24.220;2023-04-09T08:48:01;90065.59;;;8.28;76.88
22649;BME280;11491;41.942;24.220;2023-04-09T08:50:31;90067.91;;;8.29;76.59
22649;BME280;11491;41.942;24.220;2023-04-09T08:53:01;90069.53;;;8.22;77.55
22649;BME280;11491;41.942;24.220;2023-04-09T08:55:28;90070.19;;;8.18;76.78
22649;BME280;11491;41.942;24.220;2023-04-09T08:57:55;90069.34;;;8.06;78.01
22649;BME280;11491;41.942;24.220;2023-04-09T09:00:23;90068.41;;;8.02;78.93
22649;BME280;11491;41.942;24.220;2023-04-09T09:03:00;90060.81;;;7.91;78.81
22649;BME280;11491;41.942;24.220;2023-04-09T09:05:34;90060.06;;;7.82;78.49
22649;BME280;11491;41.942;24.220;2023-04-09T09:08:03;90067.06;;;7.66;80.53
22649;BME280;11491;41.942;24.220;2023-04-09T09:10:36;90067.06;;;7.66;81.75
22649;BME280;11491;41.942;24.220;2023-04-09T09:13:21;90059.72;;;7.63;80.28
22649;BME280;11491;41.942;24.220;2023-04-09T09:15:47;90061.59;;;7.62;81.87
22649;BME280;11491;41.942;24.220;2023-04-09T09:18:18;90053.56;;;7.71;81.58
22649;BME280;11491;41.942;24.220;2023-04-09T09:20:45;90048.16;;;7.88;80.98
22649;BME280;11491;41.942;24.220;2023-04-09T09:23:13;90050.88;;;8.01;80.75
22649;BME280;11491;41.942;24.220;2023-04-09T09:25:40;90055.16;;;8.14;80.17
22649;BME280;11491;41.942;24.220;2023-04-09T09:28:08;90054.50;;;8.17;79.67
22649;BME280;11491;41.942;24.220;2023-04-09T09:30:36;90054.66;;;8.20;78.87
22649;BME280;11491;41.942;24.220;2023-04-09T09:33:05;90053.09;;;8.19;77.83
22649;BME280;11491;41.942;24.220;2023-04-09T09:35:46;90053.13;;;7.90;78.19
22649;BME280;11491;41.942;24.220;2023-04-09T09:38:15;90053.97;;;7.82;79.10
22649;BME280;11491;41.942;24.220;2023-04-09T09:40:43;90054.84;;;7.65;80.02
22649;BME280;11491;41.942;24.220;2023-04-09T09:43:10;90055.41;;;7.49;80.64
22649;BME280;11491;41.942;24.220;2023-04-09T09:45:37;90054.22;;;7.29;81.71
22649;BME280;11491;41.942;24.220;2023-04-09T09:48:05;90052.16;;;7.35;81.77
22649;BME280;11491;41.942;24.220;2023-04-09T09:50:33;90061.97;;;7.14;81.95
22649;BME280;11491;41.942;24.220;2023-04-09T09:53:03;90058.41;;;7.01;82.16
22649;BME280;11491;41.942;24.220;2023-04-09T09:55:33;90065.75;;;6.95;80.68
22649;BME280;11491;41.942;24.220;2023-04-09T09:58:11;90071.06;;;6.95;81.55
22649;BME280;11491;41.942;24.220;2023-04-09T10:00:42;90065.22;;;6.63;82.09
22649;BME280;11491;41.942;24.220;2023-04-09T10:03:13;90075.03;;;6.63;82.94
22649;BME280;11491;41.942;24.220;2023-04-09T10:05:41;90064.72;;;6.70;81.82
22649;BME280;11491;41.942;24.220;2023-04-09T10:08:08;90060.47;;;6.78;82.46
22649;BME280;11491;41.942;24.220;2023-04-09T10:10:38;90036.91;;;6.67;80.63
22649;BME280;11491;41.942;24.220;2023-04-09T10:13:08;90048.00;;;6.69;79.91
22649;BME280;11491;41.942;24.220;2023-04-09T10:15:40;90064.91;;;6.56;80.23
22649;BME280;11491;41.942;24.220;2023-04-09T10:18:07;90063.63;;;6.62;80.97
22649;BME280;11491;41.942;24.220;2023-04-09T10:20:39;90055.50;;;6.67;81.40
22649;BME280;11491;41.942;24.220;2023-04-09T10:23:13;90064.09;;;6.73;80.27
22649;BME280;11491;41.942;24.220;2023-04-09T10:25:42;90063.31;;;6.73;81.27
22649;BME280;11491;41.942;24.220;2023-04-09T10:28:14;90065.19;;;6.81;81.10
22649;BME280;11491;41.942;24.220;2023-04-09T10:30:41;90065.03;;;6.77;80.60
22649;BME280;11491;41.942;24.220;2023-04-09T10:33:10;90065.34;;;6.67;81.15
22649;BME280;11491;41.942;24.220;2023-04-09T10:35:37;90055.53;;;6.50;81.67
22649;BME280;11491;41.942;24.220;2023-04-09T10:38:06;90059.59;;;6.56;82.09
22649;BME280;11491;41.942;24.220;2023-04-09T10:40:34;90062.72;;;6.41;82.51
22649;BME280;11491;41.942;24.220;2023-04-09T10:43:04;90062.56;;;6.37;83.52
22649;BME280;11491;41.942;24.220;2023-04-09T10:45:39;90050.84;;;6.47;83.24
22649;BME280;11491;41.942;24.220;2023-04-09T10:48:10;90058.03;;;6.55;83.10
22649;BME280;11491;41.942;24.220;2023-04-09T10:50:38;90057.41;;;6.41;82.50
22649;BME280;11491;41.942;24.220;2023-04-09T10:53:20;90062.44;;;6.34;83.91
22649;BME280;11491;41.942;24.220;2023-04-09T10:55:48;90054.31;;;6.21;83.78
22649;BME280;11491;41.942;24.220;2023-04-09T10:58:17;90059.13;;;6.11;85.06
22649;BME280;11491;41.942;24.220;2023-04-09T11:00:45;90061.94;;;6.06;85.73
22649;BME280;11491;41.942;24.220;2023-04-09T11:03:19;90047.53;;;5.80;86.57
22649;BME280;11491;41.942;24.220;2023-04-09T11:05:49;90053.63;;;5.90;87.56
22649;BME280;11491;41.942;24.220;2023-04-09T11:08:17;90043.66;;;5.87;86.69
22649;BME280;11491;41.942;24.220;2023-04-09T11:10:44;90046.75;;;5.80;87.33
22649;BME280;11491;41.942;24.220;2023-04-09T11:13:12;90047.84;;;5.88;87.56
22649;BME280;11491;41.942;24.220;2023-04-09T11:15:42;90040.84;;;5.92;87.13
22649;BME280;11491;41.942;24.220;2023-04-09T11:18:13;90044.63;;;6.08;87.37
22649;BME280;11491;41.942;24.220;2023-04-09T11:20:40;90044.16;;;6.32;87.01
22649;BME280;11491;41.942;24.220;2023-04-09T11:23:06;90039.59;;;6.50;85.61
22649;BME280;11491;41.942;24.220;2023-04-09T11:25:33;90044.91;;;6.50;85.35
22649;BME280;11491;41.942;24.220;2023-04-09T11:28:02;90029.28;;;6.57;84.86
22649;BME280;11491;41.942;24.220;2023-04-09T11:30:30;90043.47;;;6.70;84.10
22649;BME280;11491;41.942;24.220;2023-04-09T11:33:00;90037.97;;;6.75;83.12
22649;BME280;11491;41.942;24.220;2023-04-09T11:35:27;90033.66;;;6.62;84.25
22649;BME280;11491;41.942;24.220;2023-04-09T11:37:54;90033.59;;;6.71;83.72
22649;BME280;11491;41.942;24.220;2023-04-09T11:40:23;90038.00;;;6.66;83.32
22649;BME280;11491;41.942;24.220;2023-04-09T11:42:52;90036.13;;;6.58;83.77
22649;BME280;11491;41.942;24.220;2023-04-09T11:45:21;90035.69;;;6.56;83.58
22649;BME280;11491;41.942;24.220;2023-04-09T11:47:48;90032.44;;;6.42;84.75
22649;BME280;11491;41.942;24.220;2023-04-09T11:50:18;90040.88;;;6.44;84.10
22649;BME280;11491;41.942;24.220;2023-04-09T11:52:45;90032.72;;;6.49;84.29
22649;BME280;11491;41.942;24.220;2023-04-09T11:55:22;90031.94;;;6.40;84.09
22649;BME280;11491;41.942;24.220;2023-04-09T11:57:52;90037.28;;;6.31;84.74
22649;BME280;11491;41.942;24.220;2023-04-09T12:00:19;90036.47;;;6.31;85.03
22649;BME280;11491;41.942;24.220;2023-04-09T12:02:50;90026.69;;;6.14;84.93
22649;BME280;11491;41.942;24.220;2023-04-09T12:05:22;90030.88;;;6.06;85.60
22649;BME280;11491;41.942;24.220;2023-04-09T12:07:49;90026.47;;;5.93;85.46
22649;BME280;11491;41.942;24.220;2023-04-09T12:10:16;90041.66;;;6.01;85.37
22649;BME280;11491;41.942;24.220;2023-04-09T12:12:45;90020.53;;;5.78;86.33
22649;BME280;11491;41.942;24.220;2023-04-09T12:15:18;90036.00;;;5.85;86.35
22649;BME280;11491;41.942;24.220;2023-04-09T12:17:47;90035.22;;;5.85;86.60
22649;BME280;11491;41.942;24.220;2023-04-09T12:20:30;90030.53;;;5.81;86.46
22649;BME280;11491;41.942;24.220;2023-04-09T12:22:58;90031.47;;;5.86;86.45
22649;BME280;11491;41.942;24.220;2023-04-09T12:25:25;90033.63;;;5.66;87.69
22649;BME280;11491;41.942;24.220;2023-04-09T12:27:53;90020.22;;;5.71;88.00
22649;BME280;11491;41.942;24.220;2023-04-09T12:30:21;90027.88;;;5.90;88.11
22649;BME280;11491;41.942;24.220;2023-04-09T12:32:47;90039.47;;;5.94;87.87
22649;BME280;11491;41.942;24.220;2023-04-09T12:35:14;90030.59;;;5.99;87.38
22649;BME280;11491;41.942;24.220;2023-04-09T12:37:43;90038.69;;;5.94;87.54
22649;BME280;11491;41.942;24.220;2023-04-09T12:40:10;90033.84;;;5.96;87.61
22649;BME280;11491;41.942;24.220;2023-04-09T12:42:38;90026.47;;;5.93;87.66
22649;BME280;11491;41.942;24.220;2023-04-09T12:45:06;90000.25;;;5.65;87.46
22649;BME280;11491;41.942;24.220;2023-04-09T12:47:33;90023.66;;;5.80;87.35
22649;BME280;11491;41.942;24.220;2023-04-09T12:50:00;90011.50;;;5.79;87.88
22649;BME280;11491;41.942;24.220;2023-04-09T12:52:27;90028.09;;;5.94;88.16
22649;BME280;11491;41.942;24.220;2023-04-09T12:54:55;90020.91;;;5.94;87.95
22649;BME280;11491;41.942;24.220;2023-04-09T12:57:22;90027.78;;;6.04;87.53
22649;BME280;11491;41.942;24.220;2023-04-09T12:59:49;90021.66;;;6.12;88.39
22649;BME280;11491;41.942;24.220;2023-04-09T13:02:15;90018.38;;;6.15;88.06
22649;BME280;11491;41.942;24.220;2023-04-09T13:04:42;89993.88;;;6.10;87.57